»·PEaware :: N2144V KSBA-KSAN

N2144V :: KSBA-KSAN

FLIGHT INFORMATION

Flight Status: Arrived
Operator: Privately registered:
United States
More flights under this callsign
Pilot: Floris F. (3633)
Aircraft: CESSNA 500 CITATION 1
(C500)
More flights by this aircraft type
Origin: KSBA Santa Barbara Mun
United States
Destination: KSAN San Diego Intl-Lindbergh
United States
More flights between these airports :: More routes between these airports
Route: KWANG VTU V208 SXC V208 LAX118R CARDI MZB320R MZB
File this flight plan on PilotEdge
Remarks:
Altitude:
(Current/Filed)
11,000ft
Speed:
(Current/Filed)
285kts
Departed: 18-May-14 10:55 AM
Arrived: 18-May-14 11:43 AM
Distance/Time
Traveled:
167nm/0:48
Distance/Time
To Go:
Arrived

Flight Plot

Page will automatically refresh every two minutes.


Map Options




Map Legend


Flown Route
Filed Route
Departure Airport
Arrival Airport
Navaid (VOR, NDB)
Fix

Horizontal Profiles

Position Reports

Time Latitude Longitude Heading Altitude Ground
Speed
18-May-14 10:39 34.424495 -119.836025 72 12ft 0kts
18-May-14 10:40 34.424495 -119.836024 72 12ft 0kts
18-May-14 10:41 34.424496 -119.836024 72 12ft 0kts
18-May-14 10:42 34.424496 -119.836023 72 12ft 0kts
18-May-14 10:43 34.424496 -119.836022 72 12ft 0kts
18-May-14 10:44 34.424496 -119.836021 72 12ft 0kts
18-May-14 10:45 34.424496 -119.836021 72 12ft 0kts
18-May-14 10:46 34.424497 -119.836020 72 12ft 0kts
18-May-14 10:47 34.424497 -119.836019 72 12ft 0kts
18-May-14 10:48 34.424767 -119.836245 303 12ft 2kts
18-May-14 10:49 34.426575 -119.837013 17 12ft 12kts
18-May-14 10:50 34.427271 -119.835161 356 12ft 0kts
18-May-14 10:51 34.427271 -119.835161 356 12ft 0kts
18-May-14 10:52 34.427725 -119.843297 267 13ft 103kts
18-May-14 10:53 34.427837 -119.890674 269 1860ft 176kts
18-May-14 10:54 34.421705 -119.952296 251 4990ft 184kts
18-May-14 10:55 34.375251 -119.953095 126 7594ft 217kts
18-May-14 10:56 34.367064 -119.868745 89 8009ft 296kts
18-May-14 10:57 34.356723 -119.768236 98 8000ft 302kts
18-May-14 10:58 34.339553 -119.670455 101 9215ft 288kts
18-May-14 10:59 34.321626 -119.577613 103 10947ft 290kts
18-May-14 11:00 34.295484 -119.478564 116 11007ft 315kts
18-May-14 11:01 34.255994 -119.383984 118 11009ft 315kts
18-May-14 11:02 34.215861 -119.289646 118 11007ft 315kts
18-May-14 11:03 34.176119 -119.195115 118 11005ft 315kts
18-May-14 11:04 34.136424 -119.100461 118 11007ft 315kts
18-May-14 11:05 34.066910 -119.047909 172 11011ft 298kts
18-May-14 11:06 33.985191 -119.035392 180 11006ft 294kts
18-May-14 11:07 33.903350 -119.027185 180 11000ft 294kts
18-May-14 11:08 33.821792 -119.018799 180 11001ft 294kts
18-May-14 11:09 33.760286 -118.954258 118 11011ft 314kts
18-May-14 11:10 33.724159 -118.858386 114 11011ft 313kts
18-May-14 11:11 33.682180 -118.766959 135 11011ft 309kts
18-May-14 11:12 33.616059 -118.701422 143 11017ft 306kts
18-May-14 11:13 33.548135 -118.639469 146 11023ft 306kts
18-May-14 11:14 33.484268 -118.570977 136 11030ft 309kts
18-May-14 11:15 33.426931 -118.493944 132 11035ft 309kts
18-May-14 11:16 33.372422 -118.413946 121 11044ft 311kts
18-May-14 11:17 33.345933 -118.315227 103 10998ft 312kts
18-May-14 11:18 33.325075 -118.214179 104 10991ft 312kts
18-May-14 11:19 33.302363 -118.113295 105 10982ft 313kts
18-May-14 11:20 33.278790 -118.012809 106 10974ft 313kts
18-May-14 11:21 33.254963 -117.912670 106 10968ft 312kts
18-May-14 11:22 33.235084 -117.829600 106 10957ft 311kts
18-May-14 11:23 33.207210 -117.713507 106 10957ft 310kts
18-May-14 11:24 33.187211 -117.630750 106 10957ft 310kts
18-May-14 11:25 33.163162 -117.531489 106 11002ft 311kts
18-May-14 11:26 33.131896 -117.436613 134 11007ft 306kts
18-May-14 11:27 33.062591 -117.381152 156 10096ft 292kts
18-May-14 11:28 32.989733 -117.340029 157 8593ft 291kts
18-May-14 11:29 32.915620 -117.299253 157 7170ft 290kts
18-May-14 11:30 32.847632 -117.260038 144 6954ft 257kts
18-May-14 11:31 32.817944 -117.181587 103 5499ft 267kts
18-May-14 11:32 32.799132 -117.100475 103 5018ft 233kts
18-May-14 11:33 32.782144 -117.028183 103 5035ft 225kts
18-May-14 11:34 32.732058 -116.993940 188 4099ft 227kts
18-May-14 11:35 32.681215 -117.023203 259 3048ft 189kts
18-May-14 11:36 32.693512 -117.075371 299 2612ft 159kts
18-May-14 11:37 32.711835 -117.106191 296 1637ft 103kts
18-May-14 11:38 32.721110 -117.138122 283 817ft 99kts
18-May-14 11:39 32.728796 -117.169989 283 290ft 100kts
18-May-14 11:40 32.733753 -117.190852 261 17ft 16kts
18-May-14 11:41 32.732802 -117.192159 215 17ft 19kts
18-May-14 11:42 32.731394 -117.192342 119 17ft 0kts
18-May-14 11:43 32.731394 -117.192341 119 17ft 0kts

Navigation Log

Ident Type
Flight plan parsing failed, navigation log unavailable